Ashmore, Illinois
Current Conditions -  °F | °C
As of 3:53 PM on Monday 20 Oct 2014 (Local Time) from KMTO Reporting Station
Clear Clear  
Wind Chill: 68°   Ceiling: Unl
Heat Index: 68°   Visibility: 10mi
Dew Point: 44°   Wind: 18mph
Humidity: 42%   Direction: 300°WNW
Pressure: 29.88"   Gusts: NA
Location:  39.53°N, 88.02°W
Report Text: KMTO 202053Z AUTO 30016KT 10SM CLR 20/07 A2988 RMK AO2 SLP117 T02000067 55003
Loading
Personal Weather Stations






























Interactive Weather Map
Tropical Storm Tracking
New forecast layout! Learn more

10-Day Weather Forecast

Advertisements
Track Severe Weather on mobile